sensor_id;sensor_type;location;lat;lon;timestamp;P1;durP1;ratioP1;P2;durP2;ratioP2
17564;SDS011;62994;52.126;5.596;2023-04-24T00:02:16;0.90;;;0.90;;
17564;SDS011;62994;52.126;5.596;2023-04-24T00:04:44;0.90;;;0.90;;
17564;SDS011;62994;52.126;5.596;2023-04-24T00:07:11;0.85;;;0.85;;
17564;SDS011;62994;52.126;5.596;2023-04-24T00:09:39;0.93;;;0.90;;
17564;SDS011;62994;52.126;5.596;2023-04-24T00:12:06;1.80;;;1.23;;
17564;SDS011;62994;52.126;5.596;2023-04-24T00:14:33;1.30;;;1.30;;
17564;SDS011;62994;52.126;5.596;2023-04-24T00:17:01;1.27;;;1.27;;
17564;SDS011;62994;52.126;5.596;2023-04-24T00:19:30;1.95;;;1.83;;
17564;SDS011;62994;52.126;5.596;2023-04-24T00:21:57;3.08;;;2.35;;
17564;SDS011;62994;52.126;5.596;2023-04-24T00:24:25;1.95;;;1.95;;
17564;SDS011;62994;52.126;5.596;2023-04-24T00:26:52;2.83;;;2.63;;
17564;SDS011;62994;52.126;5.596;2023-04-24T00:29:20;2.55;;;2.45;;
17564;SDS011;62994;52.126;5.596;2023-04-24T00:31:47;2.63;;;2.53;;
17564;SDS011;62994;52.126;5.596;2023-04-24T00:34:14;2.38;;;2.03;;
17564;SDS011;62994;52.126;5.596;2023-04-24T00:36:43;2.72;;;2.28;;
17564;SDS011;62994;52.126;5.596;2023-04-24T00:39:11;2.38;;;2.03;;
17564;SDS011;62994;52.126;5.596;2023-04-24T00:41:38;2.08;;;1.90;;
17564;SDS011;62994;52.126;5.596;2023-04-24T00:44:06;2.17;;;2.17;;
17564;SDS011;62994;52.126;5.596;2023-04-24T00:46:33;2.28;;;2.08;;
17564;SDS011;62994;52.126;5.596;2023-04-24T00:49:00;2.28;;;2.10;;
17564;SDS011;62994;52.126;5.596;2023-04-24T00:51:28;2.40;;;2.30;;
17564;SDS011;62994;52.126;5.596;2023-04-24T00:54:03;2.15;;;2.05;;
17564;SDS011;62994;52.126;5.596;2023-04-24T00:56:30;2.90;;;2.13;;
17564;SDS011;62994;52.126;5.596;2023-04-24T00:58:59;2.50;;;2.40;;
17564;SDS011;62994;52.126;5.596;2023-04-24T01:01:26;2.55;;;2.45;;
17564;SDS011;62994;52.126;5.596;2023-04-24T01:03:57;2.50;;;2.40;;
17564;SDS011;62994;52.126;5.596;2023-04-24T01:06:26;2.30;;;2.20;;
17564;SDS011;62994;52.126;5.596;2023-04-24T01:09:04;2.72;;;2.63;;
17564;SDS011;62994;52.126;5.596;2023-04-24T01:11:36;2.78;;;2.67;;
17564;SDS011;62994;52.126;5.596;2023-04-24T01:14:08;3.53;;;2.70;;
17564;SDS011;62994;52.126;5.596;2023-04-24T01:16:40;2.92;;;2.83;;
17564;SDS011;62994;52.126;5.596;2023-04-24T01:19:20;2.90;;;2.70;;
17564;SDS011;62994;52.126;5.596;2023-04-24T01:21:50;3.15;;;3.05;;
17564;SDS011;62994;52.126;5.596;2023-04-24T01:24:24;3.38;;;3.28;;
17564;SDS011;62994;52.126;5.596;2023-04-24T01:26:51;2.97;;;2.88;;
17564;SDS011;62994;52.126;5.596;2023-04-24T01:29:26;3.28;;;3.17;;
17564;SDS011;62994;52.126;5.596;2023-04-24T01:31:53;3.47;;;3.17;;
17564;SDS011;62994;52.126;5.596;2023-04-24T01:34:25;3.65;;;3.45;;
17564;SDS011;62994;52.126;5.596;2023-04-24T01:36:52;4.03;;;3.83;;
17564;SDS011;62994;52.126;5.596;2023-04-24T01:39:19;4.03;;;3.72;;
17564;SDS011;62994;52.126;5.596;2023-04-24T01:41:52;4.03;;;3.78;;
17564;SDS011;62994;52.126;5.596;2023-04-24T01:44:19;3.88;;;3.72;;
17564;SDS011;62994;52.126;5.596;2023-04-24T01:46:46;4.10;;;3.90;;
17564;SDS011;62994;52.126;5.596;2023-04-24T01:49:13;4.32;;;4.13;;
17564;SDS011;62994;52.126;5.596;2023-04-24T01:51:45;4.70;;;4.50;;
17564;SDS011;62994;52.126;5.596;2023-04-24T01:54:13;4.43;;;4.22;;
17564;SDS011;62994;52.126;5.596;2023-04-24T01:56:40;4.82;;;4.60;;
17564;SDS011;62994;52.126;5.596;2023-04-24T01:59:13;7.32;;;4.20;;
17564;SDS011;62994;52.126;5.596;2023-04-24T02:01:43;4.78;;;4.57;;
17564;SDS011;62994;52.126;5.596;2023-04-24T02:04:10;4.53;;;4.32;;
17564;SDS011;62994;52.126;5.596;2023-04-24T02:06:40;4.22;;;4.03;;
17564;SDS011;62994;52.126;5.596;2023-04-24T02:09:07;4.00;;;3.70;;
17564;SDS011;62994;52.126;5.596;2023-04-24T02:11:35;3.60;;;3.50;;
17564;SDS011;62994;52.126;5.596;2023-04-24T02:14:04;3.33;;;3.13;;
17564;SDS011;62994;52.126;5.596;2023-04-24T02:16:37;2.90;;;2.80;;
17564;SDS011;62994;52.126;5.596;2023-04-24T02:19:09;2.00;;;2.00;;
17564;SDS011;62994;52.126;5.596;2023-04-24T02:21:41;2.08;;;1.98;;
17564;SDS011;62994;52.126;5.596;2023-04-24T02:24:21;1.63;;;1.63;;
17564;SDS011;62994;52.126;5.596;2023-04-24T02:26:54;1.85;;;1.75;;
17564;SDS011;62994;52.126;5.596;2023-04-24T02:29:22;2.53;;;2.42;;
17564;SDS011;62994;52.126;5.596;2023-04-24T02:31:52;2.83;;;2.72;;
17564;SDS011;62994;52.126;5.596;2023-04-24T02:34:19;3.10;;;3.00;;
17564;SDS011;62994;52.126;5.596;2023-04-24T02:36:51;3.20;;;3.10;;
17564;SDS011;62994;52.126;5.596;2023-04-24T02:39:24;3.17;;;3.08;;
17564;SDS011;62994;52.126;5.596;2023-04-24T02:41:51;3.03;;;2.92;;
17564;SDS011;62994;52.126;5.596;2023-04-24T02:44:24;3.40;;;3.17;;
17564;SDS011;62994;52.126;5.596;2023-04-24T02:46:55;3.20;;;3.00;;
17564;SDS011;62994;52.126;5.596;2023-04-24T02:49:27;3.50;;;3.30;;
17564;SDS011;62994;52.126;5.596;2023-04-24T02:52:05;3.45;;;3.35;;
17564;SDS011;62994;52.126;5.596;2023-04-24T02:54:32;3.70;;;3.50;;
17564;SDS011;62994;52.126;5.596;2023-04-24T02:57:01;3.60;;;3.40;;
17564;SDS011;62994;52.126;5.596;2023-04-24T02:59:29;4.47;;;3.65;;
17564;SDS011;62994;52.126;5.596;2023-04-24T03:02:03;3.67;;;3.58;;
17564;SDS011;62994;52.126;5.596;2023-04-24T03:04:30;3.50;;;3.40;;
17564;SDS011;62994;52.126;5.596;2023-04-24T03:07:02;3.60;;;3.50;;
17564;SDS011;62994;52.126;5.596;2023-04-24T03:09:42;3.42;;;3.33;;
17564;SDS011;62994;52.126;5.596;2023-04-24T03:12:09;3.33;;;3.22;;
17564;SDS011;62994;52.126;5.596;2023-04-24T03:14:38;3.47;;;3.22;;
17564;SDS011;62994;52.126;5.596;2023-04-24T03:17:05;2.92;;;2.83;;
17564;SDS011;62994;52.126;5.596;2023-04-24T03:19:38;2.75;;;2.65;;
17564;SDS011;62994;52.126;5.596;2023-04-24T03:22:08;2.58;;;2.47;;
17564;SDS011;62994;52.126;5.596;2023-04-24T03:24:36;3.00;;;2.90;;
17564;SDS011;62994;52.126;5.596;2023-04-24T03:27:05;2.72;;;2.63;;
17564;SDS011;62994;52.126;5.596;2023-04-24T03:29:34;2.55;;;2.45;;
17564;SDS011;62994;52.126;5.596;2023-04-24T03:32:02;2.85;;;2.75;;
17564;SDS011;62994;52.126;5.596;2023-04-24T03:34:34;3.40;;;3.30;;
17564;SDS011;62994;52.126;5.596;2023-04-24T03:37:01;3.17;;;3.08;;
17564;SDS011;62994;52.126;5.596;2023-04-24T03:39:33;3.00;;;2.90;;
17564;SDS011;62994;52.126;5.596;2023-04-24T03:42:00;2.70;;;2.50;;
17564;SDS011;62994;52.126;5.596;2023-04-24T03:44:32;3.40;;;3.20;;
17564;SDS011;62994;52.126;5.596;2023-04-24T03:47:01;2.90;;;2.80;;
17564;SDS011;62994;52.126;5.596;2023-04-24T03:49:34;3.00;;;2.90;;
17564;SDS011;62994;52.126;5.596;2023-04-24T03:52:01;3.20;;;3.10;;
17564;SDS011;62994;52.126;5.596;2023-04-24T03:54:28;3.53;;;3.42;;
17564;SDS011;62994;52.126;5.596;2023-04-24T03:56:55;3.00;;;2.90;;
17564;SDS011;62994;52.126;5.596;2023-04-24T03:59:27;2.83;;;2.72;;
17564;SDS011;62994;52.126;5.596;2023-04-24T04:02:00;2.97;;;2.88;;
17564;SDS011;62994;52.126;5.596;2023-04-24T04:04:34;2.78;;;2.65;;
17564;SDS011;62994;52.126;5.596;2023-04-24T04:07:07;2.80;;;2.70;;
17564;SDS011;62994;52.126;5.596;2023-04-24T04:09:34;3.90;;;2.38;;
17564;SDS011;62994;52.126;5.596;2023-04-24T04:12:12;2.42;;;2.33;;
17564;SDS011;62994;52.126;5.596;2023-04-24T04:14:44;2.17;;;2.08;;
17564;SDS011;62994;52.126;5.596;2023-04-24T04:17:13;2.15;;;2.13;;
17564;SDS011;62994;52.126;5.596;2023-04-24T04:19:44;2.05;;;1.95;;
17564;SDS011;62994;52.126;5.596;2023-04-24T04:22:16;1.80;;;1.80;;
17564;SDS011;62994;52.126;5.596;2023-04-24T04:24:43;2.03;;;1.92;;
17564;SDS011;62994;52.126;5.596;2023-04-24T04:27:11;1.70;;;1.60;;
17564;SDS011;62994;52.126;5.596;2023-04-24T04:29:43;2.05;;;1.95;;
17564;SDS011;62994;52.126;5.596;2023-04-24T04:32:10;1.55;;;1.55;;
17564;SDS011;62994;52.126;5.596;2023-04-24T04:34:37;1.95;;;1.90;;
17564;SDS011;62994;52.126;5.596;2023-04-24T04:37:06;1.77;;;1.67;;
17564;SDS011;62994;52.126;5.596;2023-04-24T04:39:38;2.05;;;1.50;;
17564;SDS011;62994;52.126;5.596;2023-04-24T04:42:05;1.65;;;1.65;;
17564;SDS011;62994;52.126;5.596;2023-04-24T04:44:34;1.80;;;1.70;;
17564;SDS011;62994;52.126;5.596;2023-04-24T04:47:04;1.52;;;1.52;;
17564;SDS011;62994;52.126;5.596;2023-04-24T04:49:32;1.35;;;1.33;;
17564;SDS011;62994;52.126;5.596;2023-04-24T04:51:59;1.50;;;1.50;;
17564;SDS011;62994;52.126;5.596;2023-04-24T04:54:28;1.27;;;1.27;;
17564;SDS011;62994;52.126;5.596;2023-04-24T04:56:55;2.60;;;1.40;;
17564;SDS011;62994;52.126;5.596;2023-04-24T04:59:23;1.63;;;1.33;;
17564;SDS011;62994;52.126;5.596;2023-04-24T05:01:50;1.45;;;1.45;;
17564;SDS011;62994;52.126;5.596;2023-04-24T05:04:17;1.30;;;1.27;;
17564;SDS011;62994;52.126;5.596;2023-04-24T05:06:46;1.10;;;1.10;;
17564;SDS011;62994;52.126;5.596;2023-04-24T05:09:13;1.23;;;1.23;;
17564;SDS011;62994;52.126;5.596;2023-04-24T05:11:41;2.75;;;1.20;;
17564;SDS011;62994;52.126;5.596;2023-04-24T05:14:08;1.30;;;1.30;;
17564;SDS011;62994;52.126;5.596;2023-04-24T05:16:37;1.50;;;1.50;;
17564;SDS011;62994;52.126;5.596;2023-04-24T05:19:06;1.48;;;1.42;;
17564;SDS011;62994;52.126;5.596;2023-04-24T05:21:33;1.50;;;1.50;;
17564;SDS011;62994;52.126;5.596;2023-04-24T05:24:02;1.50;;;1.50;;
17564;SDS011;62994;52.126;5.596;2023-04-24T05:26:29;1.95;;;1.90;;
17564;SDS011;62994;52.126;5.596;2023-04-24T05:29:07;2.22;;;2.05;;
17564;SDS011;62994;52.126;5.596;2023-04-24T05:31:34;1.98;;;1.88;;
17564;SDS011;62994;52.126;5.596;2023-04-24T05:34:01;2.78;;;2.25;;
17564;SDS011;62994;52.126;5.596;2023-04-24T05:36:28;2.55;;;2.45;;
17564;SDS011;62994;52.126;5.596;2023-04-24T05:38:55;2.58;;;2.38;;
17564;SDS011;62994;52.126;5.596;2023-04-24T05:41:22;1.70;;;1.70;;
17564;SDS011;62994;52.126;5.596;2023-04-24T05:43:50;2.13;;;2.03;;
17564;SDS011;62994;52.126;5.596;2023-04-24T05:46:21;2.45;;;2.35;;
17564;SDS011;62994;52.126;5.596;2023-04-24T05:48:48;2.40;;;2.20;;
17564;SDS011;62994;52.126;5.596;2023-04-24T05:51:17;2.10;;;2.00;;
17564;SDS011;62994;52.126;5.596;2023-04-24T05:53:44;2.40;;;2.30;;
17564;SDS011;62994;52.126;5.596;2023-04-24T05:56:11;3.20;;;2.30;;
17564;SDS011;62994;52.126;5.596;2023-04-24T05:58:44;2.47;;;2.38;;
17564;SDS011;62994;52.126;5.596;2023-04-24T06:01:12;2.17;;;2.08;;
17564;SDS011;62994;52.126;5.596;2023-04-24T06:03:43;2.72;;;2.58;;
17564;SDS011;62994;52.126;5.596;2023-04-24T06:06:10;2.75;;;2.47;;
17564;SDS011;62994;52.126;5.596;2023-04-24T06:08:37;2.83;;;2.72;;
17564;SDS011;62994;52.126;5.596;2023-04-24T06:11:06;3.55;;;2.38;;
17564;SDS011;62994;52.126;5.596;2023-04-24T06:13:38;3.05;;;2.38;;
17564;SDS011;62994;52.126;5.596;2023-04-24T06:16:05;2.50;;;2.30;;
17564;SDS011;62994;52.126;5.596;2023-04-24T06:18:32;2.83;;;2.70;;
17564;SDS011;62994;52.126;5.596;2023-04-24T06:21:00;2.70;;;2.60;;
17564;SDS011;62994;52.126;5.596;2023-04-24T06:23:30;3.60;;;3.30;;
17564;SDS011;62994;52.126;5.596;2023-04-24T06:25:58;3.35;;;3.15;;
17564;SDS011;62994;52.126;5.596;2023-04-24T06:28:25;2.78;;;2.60;;
17564;SDS011;62994;52.126;5.596;2023-04-24T06:30:52;3.38;;;3.17;;
17564;SDS011;62994;52.126;5.596;2023-04-24T06:33:22;3.03;;;2.92;;
17564;SDS011;62994;52.126;5.596;2023-04-24T06:35:49;3.08;;;2.88;;
17564;SDS011;62994;52.126;5.596;2023-04-24T06:38:21;3.00;;;2.90;;
17564;SDS011;62994;52.126;5.596;2023-04-24T06:40:48;2.67;;;2.58;;
17564;SDS011;62994;52.126;5.596;2023-04-24T06:43:15;3.92;;;2.92;;
17564;SDS011;62994;52.126;5.596;2023-04-24T06:45:43;2.95;;;2.75;;
17564;SDS011;62994;52.126;5.596;2023-04-24T06:48:10;2.53;;;2.42;;
17564;SDS011;62994;52.126;5.596;2023-04-24T06:50:37;1.98;;;1.88;;
17564;SDS011;62994;52.126;5.596;2023-04-24T06:53:04;1.80;;;1.70;;
17564;SDS011;62994;52.126;5.596;2023-04-24T06:55:32;1.80;;;1.70;;
17564;SDS011;62994;52.126;5.596;2023-04-24T06:57:59;1.40;;;1.40;;
17564;SDS011;62994;52.126;5.596;2023-04-24T07:00:27;1.85;;;1.75;;
17564;SDS011;62994;52.126;5.596;2023-04-24T07:02:58;3.13;;;2.22;;
17564;SDS011;62994;52.126;5.596;2023-04-24T07:05:27;4.03;;;3.67;;
17564;SDS011;62994;52.126;5.596;2023-04-24T07:07:54;4.55;;;4.25;;
17564;SDS011;62994;52.126;5.596;2023-04-24T07:10:31;5.07;;;4.68;;
17564;SDS011;62994;52.126;5.596;2023-04-24T07:13:00;5.95;;;5.47;;
17564;SDS011;62994;52.126;5.596;2023-04-24T07:15:27;5.63;;;5.22;;
17564;SDS011;62994;52.126;5.596;2023-04-24T07:17:54;5.95;;;5.55;;
17564;SDS011;62994;52.126;5.596;2023-04-24T07:20:28;6.63;;;6.07;;
17564;SDS011;62994;52.126;5.596;2023-04-24T07:22:59;6.80;;;6.25;;
17564;SDS011;62994;52.126;5.596;2023-04-24T07:25:27;7.57;;;6.63;;
17564;SDS011;62994;52.126;5.596;2023-04-24T07:27:59;11.98;;;6.75;;
17564;SDS011;62994;52.126;5.596;2023-04-24T07:30:31;6.85;;;6.32;;
17564;SDS011;62994;52.126;5.596;2023-04-24T07:33:00;7.13;;;6.53;;
17564;SDS011;62994;52.126;5.596;2023-04-24T07:35:27;10.57;;;6.88;;
17564;SDS011;62994;52.126;5.596;2023-04-24T07:37:55;7.68;;;6.75;;
17564;SDS011;62994;52.126;5.596;2023-04-24T07:40:22;7.50;;;6.82;;
17564;SDS011;62994;52.126;5.596;2023-04-24T07:42:49;7.00;;;6.60;;
17564;SDS011;62994;52.126;5.596;2023-04-24T07:45:17;11.93;;;7.40;;
17564;SDS011;62994;52.126;5.596;2023-04-24T07:47:44;8.35;;;7.55;;
17564;SDS011;62994;52.126;5.596;2023-04-24T07:50:11;7.07;;;6.47;;
17564;SDS011;62994;52.126;5.596;2023-04-24T07:52:39;13.98;;;7.05;;
17564;SDS011;62994;52.126;5.596;2023-04-24T07:55:06;7.35;;;6.70;;
17564;SDS011;62994;52.126;5.596;2023-04-24T07:57:33;8.57;;;6.95;;
17564;SDS011;62994;52.126;5.596;2023-04-24T08:00:00;8.48;;;7.50;;
17564;SDS011;62994;52.126;5.596;2023-04-24T08:02:30;8.57;;;7.53;;
17564;SDS011;62994;52.126;5.596;2023-04-24T08:04:57;12.85;;;7.18;;
17564;SDS011;62994;52.126;5.596;2023-04-24T08:07:24;9.00;;;6.47;;
17564;SDS011;62994;52.126;5.596;2023-04-24T08:09:51;8.05;;;7.18;;
17564;SDS011;62994;52.126;5.596;2023-04-24T08:12:18;7.80;;;7.00;;
17564;SDS011;62994;52.126;5.596;2023-04-24T08:14:45;6.75;;;6.22;;
17564;SDS011;62994;52.126;5.596;2023-04-24T08:17:12;8.05;;;6.88;;
17564;SDS011;62994;52.126;5.596;2023-04-24T08:19:41;9.55;;;6.60;;
17564;SDS011;62994;52.126;5.596;2023-04-24T08:22:12;9.05;;;7.07;;
17564;SDS011;62994;52.126;5.596;2023-04-24T08:24:49;7.65;;;6.75;;
17564;SDS011;62994;52.126;5.596;2023-04-24T08:27:19;8.88;;;6.78;;
17564;SDS011;62994;52.126;5.596;2023-04-24T08:29:46;7.90;;;6.60;;
17564;SDS011;62994;52.126;5.596;2023-04-24T08:32:13;5.22;;;4.70;;
17564;SDS011;62994;52.126;5.596;2023-04-24T08:34:43;6.10;;;4.60;;
17564;SDS011;62994;52.126;5.596;2023-04-24T08:37:10;6.55;;;4.90;;
17564;SDS011;62994;52.126;5.596;2023-04-24T08:39:52;7.75;;;5.15;;
17564;SDS011;62994;52.126;5.596;2023-04-24T08:42:20;9.75;;;4.65;;
17564;SDS011;62994;52.126;5.596;2023-04-24T08:44:53;9.95;;;5.18;;
17564;SDS011;62994;52.126;5.596;2023-04-24T08:47:24;7.13;;;4.63;;
17564;SDS011;62994;52.126;5.596;2023-04-24T08:49:54;11.70;;;5.50;;
17564;SDS011;62994;52.126;5.596;2023-04-24T08:52:23;7.28;;;3.50;;
17564;SDS011;62994;52.126;5.596;2023-04-24T08:54:56;7.88;;;3.03;;
17564;SDS011;62994;52.126;5.596;2023-04-24T08:57:23;3.88;;;3.50;;
17564;SDS011;62994;52.126;5.596;2023-04-24T08:59:52;7.03;;;3.58;;
17564;SDS011;62994;52.126;5.596;2023-04-24T09:02:19;6.38;;;3.85;;
17564;SDS011;62994;52.126;5.596;2023-04-24T09:04:48;7.38;;;4.00;;
17564;SDS011;62994;52.126;5.596;2023-04-24T09:07:17;16.15;;;4.40;;
17564;SDS011;62994;52.126;5.596;2023-04-24T09:09:45;4.68;;;3.72;;
17564;SDS011;62994;52.126;5.596;2023-04-24T09:12:13;8.98;;;4.63;;
17564;SDS011;62994;52.126;5.596;2023-04-24T09:14:40;8.40;;;4.07;;
17564;SDS011;62994;52.126;5.596;2023-04-24T09:17:10;15.82;;;3.33;;
17564;SDS011;62994;52.126;5.596;2023-04-24T09:19:37;8.13;;;3.40;;
17564;SDS011;62994;52.126;5.596;2023-04-24T09:22:04;4.20;;;2.80;;
17564;SDS011;62994;52.126;5.596;2023-04-24T09:24:33;9.27;;;3.30;;
17564;SDS011;62994;52.126;5.596;2023-04-24T09:27:01;7.30;;;3.00;;
17564;SDS011;62994;52.126;5.596;2023-04-24T09:29:30;4.65;;;2.20;;
17564;SDS011;62994;52.126;5.596;2023-04-24T09:31:58;3.08;;;2.30;;
17564;SDS011;62994;52.126;5.596;2023-04-24T09:34:25;7.43;;;2.42;;
17564;SDS011;62994;52.126;5.596;2023-04-24T09:36:53;7.13;;;2.83;;
17564;SDS011;62994;52.126;5.596;2023-04-24T09:39:21;8.07;;;2.60;;
17564;SDS011;62994;52.126;5.596;2023-04-24T09:41:49;4.20;;;2.22;;
17564;SDS011;62994;52.126;5.596;2023-04-24T09:44:18;7.97;;;2.30;;
17564;SDS011;62994;52.126;5.596;2023-04-24T09:46:49;5.28;;;2.28;;
17564;SDS011;62994;52.126;5.596;2023-04-24T09:49:23;7.50;;;2.50;;
17564;SDS011;62994;52.126;5.596;2023-04-24T09:51:52;7.15;;;2.20;;
17564;SDS011;62994;52.126;5.596;2023-04-24T09:54:28;7.75;;;2.60;;
17564;SDS011;62994;52.126;5.596;2023-04-24T09:56:57;5.32;;;2.58;;
17564;SDS011;62994;52.126;5.596;2023-04-24T09:59:25;6.90;;;2.35;;
17564;SDS011;62994;52.126;5.596;2023-04-24T10:01:52;3.72;;;2.30;;
17564;SDS011;62994;52.126;5.596;2023-04-24T10:04:25;5.40;;;2.33;;
17564;SDS011;62994;52.126;5.596;2023-04-24T10:07:00;6.47;;;2.28;;
17564;SDS011;62994;52.126;5.596;2023-04-24T10:09:32;4.00;;;2.35;;
17564;SDS011;62994;52.126;5.596;2023-04-24T10:12:01;3.90;;;2.53;;
17564;SDS011;62994;52.126;5.596;2023-04-24T10:14:30;6.38;;;2.00;;
17564;SDS011;62994;52.126;5.596;2023-04-24T10:17:00;5.57;;;2.65;;
17564;SDS011;62994;52.126;5.596;2023-04-24T10:19:27;3.58;;;2.00;;
17564;SDS011;62994;52.126;5.596;2023-04-24T10:22:05;7.15;;;2.20;;
17564;SDS011;62994;52.126;5.596;2023-04-24T10:24:33;5.57;;;2.50;;
17564;SDS011;62994;52.126;5.596;2023-04-24T10:27:06;5.40;;;2.25;;
17564;SDS011;62994;52.126;5.596;2023-04-24T10:29:39;3.65;;;1.92;;
17564;SDS011;62994;52.126;5.596;2023-04-24T10:32:08;4.28;;;2.10;;
17564;SDS011;62994;52.126;5.596;2023-04-24T10:34:36;4.63;;;1.77;;
17564;SDS011;62994;52.126;5.596;2023-04-24T10:37:04;4.20;;;1.73;;
17564;SDS011;62994;52.126;5.596;2023-04-24T10:39:31;2.75;;;2.00;;
17564;SDS011;62994;52.126;5.596;2023-04-24T10:41:58;5.18;;;1.85;;
17564;SDS011;62994;52.126;5.596;2023-04-24T10:44:41;3.47;;;1.67;;
17564;SDS011;62994;52.126;5.596;2023-04-24T10:47:16;4.05;;;1.88;;
17564;SDS011;62994;52.126;5.596;2023-04-24T10:49:43;8.48;;;1.75;;
17564;SDS011;62994;52.126;5.596;2023-04-24T10:52:12;1.88;;;1.30;;
17564;SDS011;62994;52.126;5.596;2023-04-24T10:54:46;2.45;;;1.00;;
17564;SDS011;62994;52.126;5.596;2023-04-24T10:57:28;5.90;;;1.30;;
17564;SDS011;62994;52.126;5.596;2023-04-24T11:00:15;2.05;;;0.93;;
17564;SDS011;62994;52.126;5.596;2023-04-24T11:02:45;4.50;;;1.10;;
17564;SDS011;62994;52.126;5.596;2023-04-24T11:05:20;2.88;;;1.25;;
17564;SDS011;62994;52.126;5.596;2023-04-24T11:10:38;1.35;;;0.95;;
17564;SDS011;62994;52.126;5.596;2023-04-24T11:13:10;2.13;;;1.10;;
17564;SDS011;62994;52.126;5.596;2023-04-24T11:15:46;1.02;;;0.88;;
17564;SDS011;62994;52.126;5.596;2023-04-24T11:18:41;2.88;;;0.95;;
17564;SDS011;62994;52.126;5.596;2023-04-24T11:21:16;3.28;;;1.20;;
17564;SDS011;62994;52.126;5.596;2023-04-24T11:23:46;6.03;;;1.10;;
17564;SDS011;62994;52.126;5.596;2023-04-24T11:26:21;1.25;;;1.00;;
17564;SDS011;62994;52.126;5.596;2023-04-24T11:28:53;1.55;;;0.98;;
17564;SDS011;62994;52.126;5.596;2023-04-24T11:31:35;1.02;;;0.98;;
17564;SDS011;62994;52.126;5.596;2023-04-24T11:34:07;0.80;;;0.80;;
17564;SDS011;62994;52.126;5.596;2023-04-24T11:36:42;6.38;;;1.42;;
17564;SDS011;62994;52.126;5.596;2023-04-24T11:39:10;3.17;;;1.20;;
17564;SDS011;62994;52.126;5.596;2023-04-24T11:41:37;2.05;;;1.30;;
17564;SDS011;62994;52.126;5.596;2023-04-24T11:44:07;1.45;;;1.23;;
17564;SDS011;62994;52.126;5.596;2023-04-24T11:46:36;6.88;;;1.27;;
17564;SDS011;62994;52.126;5.596;2023-04-24T11:49:05;1.35;;;1.25;;
17564;SDS011;62994;52.126;5.596;2023-04-24T11:51:32;2.58;;;1.20;;
17564;SDS011;62994;52.126;5.596;2023-04-24T11:54:07;1.77;;;1.10;;
17564;SDS011;62994;52.126;5.596;2023-04-24T11:56:36;1.98;;;1.00;;
17564;SDS011;62994;52.126;5.596;2023-04-24T11:59:03;2.33;;;1.15;;
17564;SDS011;62994;52.126;5.596;2023-04-24T12:01:43;1.65;;;1.05;;
17564;SDS011;62994;52.126;5.596;2023-04-24T12:04:10;2.72;;;1.10;;
17564;SDS011;62994;52.126;5.596;2023-04-24T12:06:43;1.95;;;0.80;;
17564;SDS011;62994;52.126;5.596;2023-04-24T12:09:28;1.83;;;0.90;;
17564;SDS011;62994;52.126;5.596;2023-04-24T12:12:06;1.98;;;0.60;;
17564;SDS011;62994;52.126;5.596;2023-04-24T12:14:41;1.42;;;0.55;;
17564;SDS011;62994;52.126;5.596;2023-04-24T12:17:25;2.45;;;0.70;;
17564;SDS011;62994;52.126;5.596;2023-04-24T12:20:08;0.77;;;0.70;;
17564;SDS011;62994;52.126;5.596;2023-04-24T12:22:45;1.25;;;0.90;;
17564;SDS011;62994;52.126;5.596;2023-04-24T12:28:11;1.30;;;0.60;;
17564;SDS011;62994;52.126;5.596;2023-04-24T12:30:39;0.47;;;0.40;;
17564;SDS011;62994;52.126;5.596;2023-04-24T12:33:16;2.72;;;0.95;;
17564;SDS011;62994;52.126;5.596;2023-04-24T12:35:44;2.22;;;0.82;;
17564;SDS011;62994;52.126;5.596;2023-04-24T12:38:16;5.20;;;1.00;;
17564;SDS011;62994;52.126;5.596;2023-04-24T12:41:00;1.60;;;1.00;;
17564;SDS011;62994;52.126;5.596;2023-04-24T12:43:29;2.15;;;1.38;;
17564;SDS011;62994;52.126;5.596;2023-04-24T12:46:00;4.45;;;0.95;;
17564;SDS011;62994;52.126;5.596;2023-04-24T12:48:37;2.83;;;1.00;;
17564;SDS011;62994;52.126;5.596;2023-04-24T12:51:04;0.73;;;0.70;;
17564;SDS011;62994;52.126;5.596;2023-04-24T12:53:31;3.55;;;1.20;;
17564;SDS011;62994;52.126;5.596;2023-04-24T12:55:58;2.10;;;0.80;;
17564;SDS011;62994;52.126;5.596;2023-04-24T12:58:30;4.30;;;0.93;;
17564;SDS011;62994;52.126;5.596;2023-04-24T13:00:57;2.60;;;1.00;;
17564;SDS011;62994;52.126;5.596;2023-04-24T13:03:26;2.50;;;1.20;;
17564;SDS011;62994;52.126;5.596;2023-04-24T13:05:56;2.58;;;1.50;;
17564;SDS011;62994;52.126;5.596;2023-04-24T13:08:30;2.53;;;1.13;;
17564;SDS011;62994;52.126;5.596;2023-04-24T13:11:05;3.60;;;1.30;;
17564;SDS011;62994;52.126;5.596;2023-04-24T13:13:32;2.47;;;1.58;;
17564;SDS011;62994;52.126;5.596;2023-04-24T13:16:09;4.22;;;1.58;;
17564;SDS011;62994;52.126;5.596;2023-04-24T13:18:36;3.30;;;1.90;;
17564;SDS011;62994;52.126;5.596;2023-04-24T13:21:09;5.60;;;1.83;;
17564;SDS011;62994;52.126;5.596;2023-04-24T13:23:36;4.05;;;1.70;;
17564;SDS011;62994;52.126;5.596;2023-04-24T13:26:03;7.10;;;1.77;;
17564;SDS011;62994;52.126;5.596;2023-04-24T13:28:30;9.23;;;2.05;;
17564;SDS011;62994;52.126;5.596;2023-04-24T13:31:03;9.30;;;1.90;;
17564;SDS011;62994;52.126;5.596;2023-04-24T13:33:31;3.45;;;1.45;;
17564;SDS011;62994;52.126;5.596;2023-04-24T13:36:09;6.97;;;1.70;;
17564;SDS011;62994;52.126;5.596;2023-04-24T13:38:36;8.90;;;2.20;;
17564;SDS011;62994;52.126;5.596;2023-04-24T13:41:03;7.80;;;2.00;;
17564;SDS011;62994;52.126;5.596;2023-04-24T13:43:35;5.25;;;2.10;;
17564;SDS011;62994;52.126;5.596;2023-04-24T13:46:03;7.85;;;2.53;;
17564;SDS011;62994;52.126;5.596;2023-04-24T13:48:30;6.38;;;1.80;;
17564;SDS011;62994;52.126;5.596;2023-04-24T13:51:02;7.07;;;2.78;;
17564;SDS011;62994;52.126;5.596;2023-04-24T13:53:31;7.78;;;2.55;;
17564;SDS011;62994;52.126;5.596;2023-04-24T13:56:01;3.83;;;1.80;;
17564;SDS011;62994;52.126;5.596;2023-04-24T13:58:34;8.55;;;3.05;;
17564;SDS011;62994;52.126;5.596;2023-04-24T14:01:13;3.13;;;1.80;;
17564;SDS011;62994;52.126;5.596;2023-04-24T14:03:44;8.88;;;1.95;;
17564;SDS011;62994;52.126;5.596;2023-04-24T14:06:14;6.00;;;2.25;;
17564;SDS011;62994;52.126;5.596;2023-04-24T14:08:45;5.50;;;1.73;;
17564;SDS011;62994;52.126;5.596;2023-04-24T14:11:13;3.45;;;2.08;;
17564;SDS011;62994;52.126;5.596;2023-04-24T14:13:52;8.32;;;2.05;;
17564;SDS011;62994;52.126;5.596;2023-04-24T14:16:24;10.00;;;2.40;;
17564;SDS011;62994;52.126;5.596;2023-04-24T14:18:51;4.10;;;2.25;;
17564;SDS011;62994;52.126;5.596;2023-04-24T14:21:23;8.43;;;2.42;;
17564;SDS011;62994;52.126;5.596;2023-04-24T14:23:57;5.30;;;2.50;;
17564;SDS011;62994;52.126;5.596;2023-04-24T14:26:39;6.03;;;2.72;;
17564;SDS011;62994;52.126;5.596;2023-04-24T14:29:06;6.97;;;2.63;;
17564;SDS011;62994;52.126;5.596;2023-04-24T14:31:33;4.43;;;2.03;;
17564;SDS011;62994;52.126;5.596;2023-04-24T14:34:02;3.70;;;2.20;;
17564;SDS011;62994;52.126;5.596;2023-04-24T14:36:34;4.15;;;2.05;;
17564;SDS011;62994;52.126;5.596;2023-04-24T14:39:12;3.15;;;1.73;;
17564;SDS011;62994;52.126;5.596;2023-04-24T14:41:40;6.78;;;2.42;;
17564;SDS011;62994;52.126;5.596;2023-04-24T14:44:07;7.60;;;2.33;;
17564;SDS011;62994;52.126;5.596;2023-04-24T14:46:37;9.38;;;2.35;;
17564;SDS011;62994;52.126;5.596;2023-04-24T14:49:09;6.50;;;2.95;;
17564;SDS011;62994;52.126;5.596;2023-04-24T14:51:39;4.60;;;2.85;;
17564;SDS011;62994;52.126;5.596;2023-04-24T14:54:15;6.53;;;2.65;;
17564;SDS011;62994;52.126;5.596;2023-04-24T14:56:48;3.10;;;2.20;;
17564;SDS011;62994;52.126;5.596;2023-04-24T14:59:15;4.43;;;2.35;;
17564;SDS011;62994;52.126;5.596;2023-04-24T15:01:44;6.95;;;2.05;;
17564;SDS011;62994;52.126;5.596;2023-04-24T15:04:11;5.15;;;2.28;;
17564;SDS011;62994;52.126;5.596;2023-04-24T15:06:44;9.60;;;3.03;;
17564;SDS011;62994;52.126;5.596;2023-04-24T15:09:11;9.07;;;2.85;;
17564;SDS011;62994;52.126;5.596;2023-04-24T15:11:39;8.15;;;2.70;;